sensor_id;sensor_type;location;lat;lon;timestamp;P1;durP1;ratioP1;P2;durP2;ratioP2
801;SDS011;383;48.766;9.270;2023-03-23T00:00:21;7.55;;;3.58;;
801;SDS011;383;48.766;9.270;2023-03-23T00:02:48;5.30;;;3.20;;
801;SDS011;383;48.766;9.270;2023-03-23T00:05:15;7.50;;;3.63;;
801;SDS011;383;48.766;9.270;2023-03-23T00:07:42;6.37;;;3.13;;
801;SDS011;383;48.766;9.270;2023-03-23T00:10:10;6.27;;;2.83;;
801;SDS011;383;48.766;9.270;2023-03-23T00:12:36;5.50;;;3.60;;
801;SDS011;383;48.766;9.270;2023-03-23T00:15:08;9.00;;;3.00;;
801;SDS011;383;48.766;9.270;2023-03-23T00:17:38;5.80;;;2.93;;
801;SDS011;383;48.766;9.270;2023-03-23T00:20:06;7.83;;;3.97;;
801;SDS011;383;48.766;9.270;2023-03-23T00:22:35;6.30;;;3.63;;
801;SDS011;383;48.766;9.270;2023-03-23T00:25:03;5.73;;;3.00;;
801;SDS011;383;48.766;9.270;2023-03-23T00:27:30;5.80;;;3.43;;
801;SDS011;383;48.766;9.270;2023-03-23T00:29:57;5.67;;;3.00;;
801;SDS011;383;48.766;9.270;2023-03-23T00:32:25;6.23;;;3.47;;
801;SDS011;383;48.766;9.270;2023-03-23T00:34:53;6.13;;;3.73;;
801;SDS011;383;48.766;9.270;2023-03-23T00:37:20;9.23;;;3.77;;
801;SDS011;383;48.766;9.270;2023-03-23T00:39:47;3.57;;;2.77;;
801;SDS011;383;48.766;9.270;2023-03-23T00:42:16;2.63;;;2.30;;
801;SDS011;383;48.766;9.270;2023-03-23T00:44:44;3.97;;;2.00;;
801;SDS011;383;48.766;9.270;2023-03-23T00:47:11;3.03;;;1.90;;
801;SDS011;383;48.766;9.270;2023-03-23T00:49:39;4.70;;;2.30;;
801;SDS011;383;48.766;9.270;2023-03-23T00:52:06;5.30;;;1.77;;
801;SDS011;383;48.766;9.270;2023-03-23T00:54:33;5.40;;;2.07;;
801;SDS011;383;48.766;9.270;2023-03-23T00:57:01;3.40;;;1.73;;
801;SDS011;383;48.766;9.270;2023-03-23T00:59:28;4.00;;;2.30;;
801;SDS011;383;48.766;9.270;2023-03-23T01:01:54;2.67;;;1.90;;
801;SDS011;383;48.766;9.270;2023-03-23T01:04:21;4.00;;;2.27;;
801;SDS011;383;48.766;9.270;2023-03-23T01:06:50;3.73;;;1.93;;
801;SDS011;383;48.766;9.270;2023-03-23T01:09:17;2.20;;;1.70;;
801;SDS011;383;48.766;9.270;2023-03-23T01:11:46;3.00;;;2.10;;
801;SDS011;383;48.766;9.270;2023-03-23T01:14:14;6.20;;;2.40;;
801;SDS011;383;48.766;9.270;2023-03-23T01:16:43;2.00;;;1.80;;
801;SDS011;383;48.766;9.270;2023-03-23T01:19:10;5.17;;;2.70;;
801;SDS011;383;48.766;9.270;2023-03-23T01:21:37;5.80;;;3.40;;
801;SDS011;383;48.766;9.270;2023-03-23T01:24:05;4.10;;;2.80;;
801;SDS011;383;48.766;9.270;2023-03-23T01:26:34;7.90;;;4.10;;
801;SDS011;383;48.766;9.270;2023-03-23T01:29:01;8.30;;;4.03;;
801;SDS011;383;48.766;9.270;2023-03-23T01:31:28;6.70;;;4.30;;
801;SDS011;383;48.766;9.270;2023-03-23T01:33:55;8.90;;;3.60;;
801;SDS011;383;48.766;9.270;2023-03-23T01:36:22;6.23;;;4.23;;
801;SDS011;383;48.766;9.270;2023-03-23T01:38:51;7.13;;;3.40;;
801;SDS011;383;48.766;9.270;2023-03-23T01:41:20;5.17;;;2.30;;
801;SDS011;383;48.766;9.270;2023-03-23T01:43:57;3.90;;;2.67;;
801;SDS011;383;48.766;9.270;2023-03-23T01:46:27;10.03;;;2.50;;
801;SDS011;383;48.766;9.270;2023-03-23T01:48:55;1.90;;;1.80;;
801;SDS011;383;48.766;9.270;2023-03-23T01:51:24;5.03;;;2.63;;
801;SDS011;383;48.766;9.270;2023-03-23T01:53:54;6.07;;;3.27;;
801;SDS011;383;48.766;9.270;2023-03-23T01:56:29;6.20;;;3.60;;
801;SDS011;383;48.766;9.270;2023-03-23T01:59:03;12.00;;;4.97;;
801;SDS011;383;48.766;9.270;2023-03-23T02:01:30;4.53;;;3.97;;
801;SDS011;383;48.766;9.270;2023-03-23T02:04:01;8.80;;;5.10;;
801;SDS011;383;48.766;9.270;2023-03-23T02:06:28;10.30;;;4.90;;
801;SDS011;383;48.766;9.270;2023-03-23T02:08:55;9.37;;;5.63;;
801;SDS011;383;48.766;9.270;2023-03-23T02:11:22;10.37;;;5.23;;
801;SDS011;383;48.766;9.270;2023-03-23T02:13:50;11.07;;;5.87;;
801;SDS011;383;48.766;9.270;2023-03-23T02:16:20;14.70;;;5.43;;
801;SDS011;383;48.766;9.270;2023-03-23T02:18:58;12.47;;;5.60;;
801;SDS011;383;48.766;9.270;2023-03-23T02:24:51;11.17;;;6.30;;
801;SDS011;383;48.766;9.270;2023-03-23T02:30:41;9.73;;;4.47;;
801;SDS011;383;48.766;9.270;2023-03-23T02:33:29;8.77;;;4.47;;
801;SDS011;383;48.766;9.270;2023-03-23T02:36:05;13.10;;;5.57;;
801;SDS011;383;48.766;9.270;2023-03-23T02:38:38;8.30;;;4.30;;
801;SDS011;383;48.766;9.270;2023-03-23T02:41:15;5.30;;;3.70;;
801;SDS011;383;48.766;9.270;2023-03-23T02:43:46;8.43;;;4.20;;
801;SDS011;383;48.766;9.270;2023-03-23T02:46:14;7.13;;;4.17;;
801;SDS011;383;48.766;9.270;2023-03-23T02:48:44;5.53;;;3.27;;
801;SDS011;383;48.766;9.270;2023-03-23T02:51:14;5.57;;;3.50;;
801;SDS011;383;48.766;9.270;2023-03-23T02:53:42;7.97;;;3.90;;
801;SDS011;383;48.766;9.270;2023-03-23T02:56:10;4.50;;;3.30;;
801;SDS011;383;48.766;9.270;2023-03-23T02:58:39;5.13;;;3.17;;
801;SDS011;383;48.766;9.270;2023-03-23T03:01:14;7.33;;;3.73;;
801;SDS011;383;48.766;9.270;2023-03-23T03:03:59;7.33;;;4.13;;
801;SDS011;383;48.766;9.270;2023-03-23T03:06:31;8.17;;;4.40;;
801;SDS011;383;48.766;9.270;2023-03-23T03:09:02;9.50;;;4.10;;
801;SDS011;383;48.766;9.270;2023-03-23T03:11:32;8.63;;;4.67;;
801;SDS011;383;48.766;9.270;2023-03-23T03:14:02;13.20;;;4.50;;
801;SDS011;383;48.766;9.270;2023-03-23T03:16:32;14.63;;;4.23;;
801;SDS011;383;48.766;9.270;2023-03-23T03:19:05;8.50;;;4.40;;
801;SDS011;383;48.766;9.270;2023-03-23T03:21:37;3.80;;;2.83;;
801;SDS011;383;48.766;9.270;2023-03-23T03:24:08;6.17;;;3.30;;
801;SDS011;383;48.766;9.270;2023-03-23T03:26:36;7.93;;;3.03;;
801;SDS011;383;48.766;9.270;2023-03-23T03:29:06;6.10;;;3.03;;
801;SDS011;383;48.766;9.270;2023-03-23T03:31:34;7.30;;;4.07;;
801;SDS011;383;48.766;9.270;2023-03-23T03:34:05;7.83;;;3.87;;
801;SDS011;383;48.766;9.270;2023-03-23T03:36:33;10.40;;;4.83;;
801;SDS011;383;48.766;9.270;2023-03-23T03:39:02;6.87;;;3.97;;
801;SDS011;383;48.766;9.270;2023-03-23T03:41:32;3.50;;;2.73;;
801;SDS011;383;48.766;9.270;2023-03-23T03:43:59;4.47;;;2.40;;
801;SDS011;383;48.766;9.270;2023-03-23T03:46:26;5.30;;;2.87;;
801;SDS011;383;48.766;9.270;2023-03-23T03:48:54;9.87;;;3.73;;
801;SDS011;383;48.766;9.270;2023-03-23T03:51:23;4.20;;;3.13;;
801;SDS011;383;48.766;9.270;2023-03-23T03:53:50;6.17;;;3.40;;
801;SDS011;383;48.766;9.270;2023-03-23T03:56:17;7.13;;;4.00;;
801;SDS011;383;48.766;9.270;2023-03-23T03:58:44;6.77;;;4.30;;
801;SDS011;383;48.766;9.270;2023-03-23T04:01:13;7.97;;;3.73;;
801;SDS011;383;48.766;9.270;2023-03-23T04:03:41;7.17;;;4.20;;
801;SDS011;383;48.766;9.270;2023-03-23T04:06:08;7.40;;;3.87;;
801;SDS011;383;48.766;9.270;2023-03-23T04:08:39;10.30;;;4.70;;
801;SDS011;383;48.766;9.270;2023-03-23T04:11:06;6.50;;;4.00;;
801;SDS011;383;48.766;9.270;2023-03-23T04:13:33;4.80;;;3.67;;
801;SDS011;383;48.766;9.270;2023-03-23T04:16:00;6.43;;;3.20;;
801;SDS011;383;48.766;9.270;2023-03-23T04:18:27;7.50;;;4.60;;
801;SDS011;383;48.766;9.270;2023-03-23T04:20:54;4.73;;;3.27;;
801;SDS011;383;48.766;9.270;2023-03-23T04:23:24;12.63;;;3.97;;
801;SDS011;383;48.766;9.270;2023-03-23T04:25:52;4.77;;;3.20;;
801;SDS011;383;48.766;9.270;2023-03-23T04:28:22;7.93;;;5.20;;
801;SDS011;383;48.766;9.270;2023-03-23T04:30:49;7.40;;;4.50;;
801;SDS011;383;48.766;9.270;2023-03-23T04:33:17;8.83;;;4.97;;
801;SDS011;383;48.766;9.270;2023-03-23T04:35:44;6.77;;;4.53;;
801;SDS011;383;48.766;9.270;2023-03-23T04:38:13;13.47;;;5.67;;
801;SDS011;383;48.766;9.270;2023-03-23T04:40:41;10.17;;;4.87;;
801;SDS011;383;48.766;9.270;2023-03-23T04:43:10;8.20;;;4.70;;
801;SDS011;383;48.766;9.270;2023-03-23T04:45:38;14.03;;;5.13;;
801;SDS011;383;48.766;9.270;2023-03-23T04:48:06;12.03;;;5.60;;
801;SDS011;383;48.766;9.270;2023-03-23T04:50:34;8.53;;;5.03;;
801;SDS011;383;48.766;9.270;2023-03-23T04:53:01;11.87;;;4.87;;
801;SDS011;383;48.766;9.270;2023-03-23T04:55:29;11.03;;;4.93;;
801;SDS011;383;48.766;9.270;2023-03-23T04:57:57;10.37;;;5.97;;
801;SDS011;383;48.766;9.270;2023-03-23T05:00:26;11.40;;;5.27;;
801;SDS011;383;48.766;9.270;2023-03-23T05:02:53;9.83;;;5.80;;
801;SDS011;383;48.766;9.270;2023-03-23T05:05:20;9.13;;;5.00;;
801;SDS011;383;48.766;9.270;2023-03-23T05:07:49;16.30;;;5.50;;
801;SDS011;383;48.766;9.270;2023-03-23T05:10:16;8.00;;;4.30;;
801;SDS011;383;48.766;9.270;2023-03-23T05:12:43;11.37;;;4.80;;
801;SDS011;383;48.766;9.270;2023-03-23T05:15:11;6.10;;;4.30;;
801;SDS011;383;48.766;9.270;2023-03-23T05:17:41;7.70;;;4.20;;
801;SDS011;383;48.766;9.270;2023-03-23T05:20:09;6.20;;;3.70;;
801;SDS011;383;48.766;9.270;2023-03-23T05:22:39;8.90;;;4.10;;
801;SDS011;383;48.766;9.270;2023-03-23T05:25:07;6.23;;;4.30;;
801;SDS011;383;48.766;9.270;2023-03-23T05:27:35;14.30;;;4.10;;
801;SDS011;383;48.766;9.270;2023-03-23T05:30:02;7.13;;;3.70;;
801;SDS011;383;48.766;9.270;2023-03-23T05:32:30;7.37;;;4.33;;
801;SDS011;383;48.766;9.270;2023-03-23T05:34:59;11.53;;;4.50;;
801;SDS011;383;48.766;9.270;2023-03-23T05:37:28;7.63;;;4.57;;
801;SDS011;383;48.766;9.270;2023-03-23T05:39:57;6.10;;;3.60;;
801;SDS011;383;48.766;9.270;2023-03-23T05:42:30;9.20;;;4.27;;
801;SDS011;383;48.766;9.270;2023-03-23T05:44:57;9.00;;;4.80;;
801;SDS011;383;48.766;9.270;2023-03-23T05:47:25;8.20;;;3.47;;
801;SDS011;383;48.766;9.270;2023-03-23T05:49:52;6.13;;;3.10;;
801;SDS011;383;48.766;9.270;2023-03-23T05:52:20;8.30;;;3.53;;
801;SDS011;383;48.766;9.270;2023-03-23T05:54:48;6.23;;;3.33;;
801;SDS011;383;48.766;9.270;2023-03-23T05:57:15;5.80;;;3.63;;
801;SDS011;383;48.766;9.270;2023-03-23T05:59:42;5.43;;;3.10;;
801;SDS011;383;48.766;9.270;2023-03-23T06:02:10;4.67;;;3.17;;
801;SDS011;383;48.766;9.270;2023-03-23T06:04:38;6.10;;;3.00;;
801;SDS011;383;48.766;9.270;2023-03-23T06:07:05;5.97;;;4.00;;
801;SDS011;383;48.766;9.270;2023-03-23T06:09:34;8.50;;;3.00;;
801;SDS011;383;48.766;9.270;2023-03-23T06:12:01;6.17;;;3.27;;
801;SDS011;383;48.766;9.270;2023-03-23T06:14:27;8.43;;;3.33;;
801;SDS011;383;48.766;9.270;2023-03-23T06:16:54;5.87;;;3.80;;
801;SDS011;383;48.766;9.270;2023-03-23T06:19:20;4.20;;;3.60;;
801;SDS011;383;48.766;9.270;2023-03-23T06:21:47;5.50;;;2.97;;
801;SDS011;383;48.766;9.270;2023-03-23T06:24:14;5.27;;;2.90;;
801;SDS011;383;48.766;9.270;2023-03-23T06:26:43;6.27;;;3.70;;
801;SDS011;383;48.766;9.270;2023-03-23T06:29:10;6.70;;;2.93;;
801;SDS011;383;48.766;9.270;2023-03-23T06:31:37;8.33;;;3.50;;
801;SDS011;383;48.766;9.270;2023-03-23T06:34:05;5.63;;;3.50;;
801;SDS011;383;48.766;9.270;2023-03-23T06:36:32;8.67;;;3.50;;
801;SDS011;383;48.766;9.270;2023-03-23T06:38:59;5.53;;;4.13;;
801;SDS011;383;48.766;9.270;2023-03-23T06:41:26;9.27;;;4.40;;
801;SDS011;383;48.766;9.270;2023-03-23T06:43:54;8.87;;;4.10;;
801;SDS011;383;48.766;9.270;2023-03-23T06:46:21;7.93;;;4.07;;
801;SDS011;383;48.766;9.270;2023-03-23T06:48:47;9.07;;;3.97;;
801;SDS011;383;48.766;9.270;2023-03-23T06:51:15;18.90;;;8.10;;
801;SDS011;383;48.766;9.270;2023-03-23T06:53:42;10.77;;;4.60;;
801;SDS011;383;48.766;9.270;2023-03-23T06:56:09;10.63;;;3.83;;
801;SDS011;383;48.766;9.270;2023-03-23T06:58:36;10.10;;;4.13;;
801;SDS011;383;48.766;9.270;2023-03-23T07:01:05;10.03;;;4.70;;
801;SDS011;383;48.766;9.270;2023-03-23T07:03:33;6.50;;;3.90;;
801;SDS011;383;48.766;9.270;2023-03-23T07:06:00;7.57;;;4.00;;
801;SDS011;383;48.766;9.270;2023-03-23T07:08:27;6.93;;;3.77;;
801;SDS011;383;48.766;9.270;2023-03-23T07:10:54;5.10;;;3.43;;
801;SDS011;383;48.766;9.270;2023-03-23T07:13:21;8.93;;;3.93;;
801;SDS011;383;48.766;9.270;2023-03-23T07:15:49;8.27;;;3.60;;
801;SDS011;383;48.766;9.270;2023-03-23T07:18:17;9.80;;;3.57;;
801;SDS011;383;48.766;9.270;2023-03-23T07:20:46;8.70;;;4.37;;
801;SDS011;383;48.766;9.270;2023-03-23T07:23:13;16.20;;;5.10;;
801;SDS011;383;48.766;9.270;2023-03-23T07:25:40;9.83;;;3.90;;
801;SDS011;383;48.766;9.270;2023-03-23T07:28:07;7.53;;;3.67;;
801;SDS011;383;48.766;9.270;2023-03-23T07:30:33;14.70;;;4.13;;
801;SDS011;383;48.766;9.270;2023-03-23T07:33:03;8.80;;;3.53;;
801;SDS011;383;48.766;9.270;2023-03-23T07:35:32;6.50;;;3.77;;
801;SDS011;383;48.766;9.270;2023-03-23T07:37:59;4.73;;;3.03;;
801;SDS011;383;48.766;9.270;2023-03-23T07:40:27;5.07;;;3.03;;
801;SDS011;383;48.766;9.270;2023-03-23T07:42:58;6.47;;;3.80;;
801;SDS011;383;48.766;9.270;2023-03-23T07:45:25;6.83;;;3.23;;
801;SDS011;383;48.766;9.270;2023-03-23T07:47:52;7.13;;;3.83;;
801;SDS011;383;48.766;9.270;2023-03-23T07:50:19;4.97;;;3.40;;
801;SDS011;383;48.766;9.270;2023-03-23T07:52:50;4.20;;;2.80;;
801;SDS011;383;48.766;9.270;2023-03-23T07:55:17;9.13;;;3.67;;
801;SDS011;383;48.766;9.270;2023-03-23T07:57:45;6.47;;;3.27;;
801;SDS011;383;48.766;9.270;2023-03-23T08:00:13;5.90;;;3.23;;
801;SDS011;383;48.766;9.270;2023-03-23T08:02:44;11.63;;;3.33;;
801;SDS011;383;48.766;9.270;2023-03-23T08:05:11;11.30;;;3.60;;
801;SDS011;383;48.766;9.270;2023-03-23T08:07:39;6.23;;;3.40;;
801;SDS011;383;48.766;9.270;2023-03-23T08:10:08;8.73;;;2.93;;
801;SDS011;383;48.766;9.270;2023-03-23T08:12:36;7.37;;;3.20;;
801;SDS011;383;48.766;9.270;2023-03-23T08:15:04;4.40;;;2.80;;
801;SDS011;383;48.766;9.270;2023-03-23T08:17:32;6.17;;;2.73;;
801;SDS011;383;48.766;9.270;2023-03-23T08:19:59;4.43;;;2.10;;
801;SDS011;383;48.766;9.270;2023-03-23T08:22:26;4.50;;;1.97;;
801;SDS011;383;48.766;9.270;2023-03-23T08:24:54;2.90;;;2.10;;
801;SDS011;383;48.766;9.270;2023-03-23T08:27:22;5.20;;;2.00;;
801;SDS011;383;48.766;9.270;2023-03-23T08:29:48;7.70;;;2.50;;
801;SDS011;383;48.766;9.270;2023-03-23T08:32:15;4.30;;;2.17;;
801;SDS011;383;48.766;9.270;2023-03-23T08:34:42;5.60;;;2.63;;
801;SDS011;383;48.766;9.270;2023-03-23T08:37:09;9.00;;;3.00;;
801;SDS011;383;48.766;9.270;2023-03-23T08:39:36;5.30;;;2.70;;
801;SDS011;383;48.766;9.270;2023-03-23T08:42:04;2.87;;;2.17;;
801;SDS011;383;48.766;9.270;2023-03-23T08:44:32;6.63;;;2.70;;
801;SDS011;383;48.766;9.270;2023-03-23T08:46:59;2.77;;;2.40;;
801;SDS011;383;48.766;9.270;2023-03-23T08:49:27;3.63;;;1.97;;
801;SDS011;383;48.766;9.270;2023-03-23T08:51:57;4.10;;;2.43;;
801;SDS011;383;48.766;9.270;2023-03-23T08:54:24;5.60;;;2.63;;
801;SDS011;383;48.766;9.270;2023-03-23T08:56:51;7.87;;;3.40;;
801;SDS011;383;48.766;9.270;2023-03-23T08:59:18;2.87;;;2.20;;
801;SDS011;383;48.766;9.270;2023-03-23T09:01:46;4.53;;;2.53;;
801;SDS011;383;48.766;9.270;2023-03-23T09:04:13;4.63;;;2.23;;
801;SDS011;383;48.766;9.270;2023-03-23T09:06:40;7.93;;;2.17;;
801;SDS011;383;48.766;9.270;2023-03-23T09:09:07;5.90;;;1.87;;
801;SDS011;383;48.766;9.270;2023-03-23T09:11:34;6.63;;;2.50;;
801;SDS011;383;48.766;9.270;2023-03-23T09:14:02;3.20;;;2.20;;
801;SDS011;383;48.766;9.270;2023-03-23T09:16:29;5.57;;;3.00;;
801;SDS011;383;48.766;9.270;2023-03-23T09:18:57;6.00;;;2.53;;
801;SDS011;383;48.766;9.270;2023-03-23T09:21:25;5.63;;;2.60;;
801;SDS011;383;48.766;9.270;2023-03-23T09:23:52;8.13;;;2.50;;
801;SDS011;383;48.766;9.270;2023-03-23T09:26:23;8.63;;;3.23;;
801;SDS011;383;48.766;9.270;2023-03-23T09:28:50;4.30;;;2.63;;
801;SDS011;383;48.766;9.270;2023-03-23T09:31:17;3.40;;;2.20;;
801;SDS011;383;48.766;9.270;2023-03-23T09:33:45;7.10;;;2.70;;
801;SDS011;383;48.766;9.270;2023-03-23T09:36:18;6.63;;;2.87;;
801;SDS011;383;48.766;9.270;2023-03-23T09:38:46;2.90;;;1.97;;
801;SDS011;383;48.766;9.270;2023-03-23T09:41:16;2.67;;;1.57;;
801;SDS011;383;48.766;9.270;2023-03-23T09:43:59;4.10;;;2.27;;
801;SDS011;383;48.766;9.270;2023-03-23T09:46:40;4.50;;;2.17;;
801;SDS011;383;48.766;9.270;2023-03-23T09:49:17;2.93;;;2.10;;
801;SDS011;383;48.766;9.270;2023-03-23T09:51:49;4.20;;;2.47;;
801;SDS011;383;48.766;9.270;2023-03-23T09:54:20;4.23;;;1.60;;
801;SDS011;383;48.766;9.270;2023-03-23T09:56:52;2.57;;;1.67;;
801;SDS011;383;48.766;9.270;2023-03-23T09:59:22;7.70;;;1.97;;
801;SDS011;383;48.766;9.270;2023-03-23T10:01:53;9.80;;;2.03;;
801;SDS011;383;48.766;9.270;2023-03-23T10:04:26;12.93;;;2.20;;
801;SDS011;383;48.766;9.270;2023-03-23T10:06:59;4.57;;;1.50;;
801;SDS011;383;48.766;9.270;2023-03-23T10:09:35;6.80;;;1.90;;
801;SDS011;383;48.766;9.270;2023-03-23T10:12:04;2.43;;;1.70;;
801;SDS011;383;48.766;9.270;2023-03-23T10:14:46;19.90;;;2.27;;
801;SDS011;383;48.766;9.270;2023-03-23T10:17:24;10.10;;;2.10;;
801;SDS011;383;48.766;9.270;2023-03-23T10:19:55;4.10;;;1.93;;
801;SDS011;383;48.766;9.270;2023-03-23T10:22:37;4.33;;;1.87;;
801;SDS011;383;48.766;9.270;2023-03-23T10:25:14;6.83;;;2.10;;
801;SDS011;383;48.766;9.270;2023-03-23T10:27:42;4.10;;;2.73;;
801;SDS011;383;48.766;9.270;2023-03-23T10:30:15;5.83;;;2.77;;
801;SDS011;383;48.766;9.270;2023-03-23T10:32:47;5.90;;;3.40;;
801;SDS011;383;48.766;9.270;2023-03-23T10:35:18;5.90;;;2.83;;
801;SDS011;383;48.766;9.270;2023-03-23T10:37:52;7.43;;;1.83;;
801;SDS011;383;48.766;9.270;2023-03-23T10:40:24;3.90;;;2.10;;
801;SDS011;383;48.766;9.270;2023-03-23T10:42:54;4.20;;;2.00;;
801;SDS011;383;48.766;9.270;2023-03-23T10:45:22;2.87;;;2.27;;
801;SDS011;383;48.766;9.270;2023-03-23T10:47:52;3.47;;;2.20;;
801;SDS011;383;48.766;9.270;2023-03-23T10:50:22;2.53;;;1.90;;
801;SDS011;383;48.766;9.270;2023-03-23T10:52:54;2.87;;;1.80;;
801;SDS011;383;48.766;9.270;2023-03-23T10:55:23;2.50;;;2.00;;
801;SDS011;383;48.766;9.270;2023-03-23T10:58:00;7.30;;;2.10;;
801;SDS011;383;48.766;9.270;2023-03-23T11:00:29;5.37;;;2.47;;
801;SDS011;383;48.766;9.270;2023-03-23T11:02:58;6.10;;;2.53;;
801;SDS011;383;48.766;9.270;2023-03-23T11:05:31;5.87;;;2.50;;
801;SDS011;383;48.766;9.270;2023-03-23T11:08:02;2.10;;;1.90;;
801;SDS011;383;48.766;9.270;2023-03-23T11:10:34;6.50;;;2.60;;
801;SDS011;383;48.766;9.270;2023-03-23T11:13:03;7.63;;;1.93;;
801;SDS011;383;48.766;9.270;2023-03-23T11:15:34;6.10;;;1.90;;
801;SDS011;383;48.766;9.270;2023-03-23T11:18:04;5.47;;;2.10;;
801;SDS011;383;48.766;9.270;2023-03-23T11:20:34;4.53;;;2.33;;
801;SDS011;383;48.766;9.270;2023-03-23T11:23:09;3.30;;;2.00;;
801;SDS011;383;48.766;9.270;2023-03-23T11:25:50;3.23;;;2.10;;
801;SDS011;383;48.766;9.270;2023-03-23T11:28:19;3.30;;;2.23;;
801;SDS011;383;48.766;9.270;2023-03-23T11:30:47;5.40;;;2.33;;
801;SDS011;383;48.766;9.270;2023-03-23T11:33:14;2.90;;;2.60;;
801;SDS011;383;48.766;9.270;2023-03-23T11:35:43;3.50;;;2.40;;
801;SDS011;383;48.766;9.270;2023-03-23T11:38:15;2.53;;;2.20;;
801;SDS011;383;48.766;9.270;2023-03-23T11:40:47;4.40;;;2.53;;
801;SDS011;383;48.766;9.270;2023-03-23T11:43:18;6.50;;;3.20;;
801;SDS011;383;48.766;9.270;2023-03-23T11:45:47;3.13;;;2.73;;
801;SDS011;383;48.766;9.270;2023-03-23T11:48:20;6.67;;;2.20;;
801;SDS011;383;48.766;9.270;2023-03-23T11:50:54;3.87;;;2.80;;
801;SDS011;383;48.766;9.270;2023-03-23T11:53:27;5.40;;;2.70;;
801;SDS011;383;48.766;9.270;2023-03-23T11:56:05;5.63;;;2.37;;
801;SDS011;383;48.766;9.270;2023-03-23T11:58:37;4.10;;;2.20;;
801;SDS011;383;48.766;9.270;2023-03-23T12:01:05;4.60;;;1.90;;
801;SDS011;383;48.766;9.270;2023-03-23T12:03:48;2.60;;;2.27;;
801;SDS011;383;48.766;9.270;2023-03-23T12:06:26;6.37;;;2.63;;
801;SDS011;383;48.766;9.270;2023-03-23T12:09:08;3.80;;;2.40;;
801;SDS011;383;48.766;9.270;2023-03-23T12:11:48;5.00;;;2.53;;
801;SDS011;383;48.766;9.270;2023-03-23T12:14:20;3.90;;;2.10;;
801;SDS011;383;48.766;9.270;2023-03-23T12:17:00;4.90;;;2.37;;
801;SDS011;383;48.766;9.270;2023-03-23T12:19:37;3.00;;;2.27;;
801;SDS011;383;48.766;9.270;2023-03-23T12:22:16;8.00;;;2.80;;
801;SDS011;383;48.766;9.270;2023-03-23T12:24:55;2.07;;;1.93;;
801;SDS011;383;48.766;9.270;2023-03-23T12:27:35;2.57;;;2.00;;
801;SDS011;383;48.766;9.270;2023-03-23T12:30:14;3.27;;;2.37;;
801;SDS011;383;48.766;9.270;2023-03-23T12:32:54;6.57;;;3.13;;
801;SDS011;383;48.766;9.270;2023-03-23T12:35:36;13.10;;;4.83;;
801;SDS011;383;48.766;9.270;2023-03-23T12:38:21;3.80;;;2.60;;
801;SDS011;383;48.766;9.270;2023-03-23T12:41:14;2.70;;;2.20;;
801;SDS011;383;48.766;9.270;2023-03-23T12:43:46;5.07;;;2.50;;
801;SDS011;383;48.766;9.270;2023-03-23T12:49:05;4.57;;;2.10;;
801;SDS011;383;48.766;9.270;2023-03-23T12:51:39;3.03;;;1.93;;
801;SDS011;383;48.766;9.270;2023-03-23T12:54:11;6.70;;;1.57;;
801;SDS011;383;48.766;9.270;2023-03-23T12:56:48;11.03;;;2.30;;
801;SDS011;383;48.766;9.270;2023-03-23T12:59:22;5.63;;;2.20;;
801;SDS011;383;48.766;9.270;2023-03-23T13:01:54;3.30;;;2.10;;
801;SDS011;383;48.766;9.270;2023-03-23T13:04:25;3.43;;;2.00;;
801;SDS011;383;48.766;9.270;2023-03-23T13:06:56;8.97;;;2.80;;
801;SDS011;383;48.766;9.270;2023-03-23T13:09:26;3.57;;;2.10;;
801;SDS011;383;48.766;9.270;2023-03-23T13:11:59;3.30;;;2.00;;
801;SDS011;383;48.766;9.270;2023-03-23T13:14:32;5.93;;;2.50;;
801;SDS011;383;48.766;9.270;2023-03-23T13:17:07;2.53;;;2.20;;
801;SDS011;383;48.766;9.270;2023-03-23T13:19:54;2.60;;;1.80;;
801;SDS011;383;48.766;9.270;2023-03-23T13:22:31;3.33;;;2.20;;
801;SDS011;383;48.766;9.270;2023-03-23T13:25:02;2.90;;;2.27;;
801;SDS011;383;48.766;9.270;2023-03-23T13:27:36;9.13;;;2.53;;
801;SDS011;383;48.766;9.270;2023-03-23T13:30:03;5.63;;;2.23;;
801;SDS011;383;48.766;9.270;2023-03-23T13:32:33;7.10;;;1.90;;
801;SDS011;383;48.766;9.270;2023-03-23T13:35:02;3.10;;;2.50;;
801;SDS011;383;48.766;9.270;2023-03-23T13:37:30;4.47;;;2.20;;
801;SDS011;383;48.766;9.270;2023-03-23T13:39:58;2.80;;;2.10;;
801;SDS011;383;48.766;9.270;2023-03-23T13:42:48;3.20;;;2.63;;
801;SDS011;383;48.766;9.270;2023-03-23T13:45:20;3.70;;;2.37;;
801;SDS011;383;48.766;9.270;2023-03-23T13:47:49;4.03;;;2.33;;
801;SDS011;383;48.766;9.270;2023-03-23T13:50:28;4.83;;;2.53;;
801;SDS011;383;48.766;9.270;2023-03-23T13:52:58;2.77;;;1.93;;
801;SDS011;383;48.766;9.270;2023-03-23T13:55:30;4.70;;;1.80;;
801;SDS011;383;48.766;9.270;2023-03-23T13:58:12;3.77;;;2.93;;
801;SDS011;383;48.766;9.270;2023-03-23T14:00:49;8.10;;;5.00;;
801;SDS011;383;48.766;9.270;2023-03-23T14:03:34;5.03;;;2.57;;
801;SDS011;383;48.766;9.270;2023-03-23T14:06:03;5.60;;;2.70;;
801;SDS011;383;48.766;9.270;2023-03-23T14:11:20;2.30;;;1.80;;
801;SDS011;383;48.766;9.270;2023-03-23T14:16:36;3.80;;;2.27;;
801;SDS011;383;48.766;9.270;2023-03-23T14:19:12;4.50;;;2.23;;
801;SDS011;383;48.766;9.270;2023-03-23T14:21:48;3.23;;;2.20;;
801;SDS011;383;48.766;9.270;2023-03-23T14:24:19;4.70;;;2.50;;
801;SDS011;383;48.766;9.270;2023-03-23T14:26:49;3.53;;;2.23;;
801;SDS011;383;48.766;9.270;2023-03-23T14:29:19;3.83;;;2.10;;
801;SDS011;383;48.766;9.270;2023-03-23T14:31:49;8.73;;;2.67;;
801;SDS011;383;48.766;9.270;2023-03-23T14:34:21;3.83;;;2.17;;
801;SDS011;383;48.766;9.270;2023-03-23T14:36:51;4.40;;;2.77;;
801;SDS011;383;48.766;9.270;2023-03-23T14:39:20;5.57;;;2.53;;
801;SDS011;383;48.766;9.270;2023-03-23T14:41:50;3.90;;;2.17;;
801;SDS011;383;48.766;9.270;2023-03-23T14:44:21;3.73;;;2.60;;
801;SDS011;383;48.766;9.270;2023-03-23T14:46:50;5.50;;;2.53;;
801;SDS011;383;48.766;9.270;2023-03-23T14:49:18;3.07;;;2.37;;
801;SDS011;383;48.766;9.270;2023-03-23T14:51:48;5.00;;;2.97;;
801;SDS011;383;48.766;9.270;2023-03-23T14:54:21;4.47;;;2.70;;
801;SDS011;383;48.766;9.270;2023-03-23T14:56:49;5.50;;;2.70;;
801;SDS011;383;48.766;9.270;2023-03-23T14:59:16;6.40;;;2.60;;
801;SDS011;383;48.766;9.270;2023-03-23T15:01:45;6.37;;;3.40;;
801;SDS011;383;48.766;9.270;2023-03-23T15:04:14;7.80;;;2.97;;
801;SDS011;383;48.766;9.270;2023-03-23T15:06:44;5.00;;;2.67;;
801;SDS011;383;48.766;9.270;2023-03-23T15:09:18;5.73;;;3.07;;
801;SDS011;383;48.766;9.270;2023-03-23T15:11:51;4.47;;;2.83;;
801;SDS011;383;48.766;9.270;2023-03-23T15:14:21;5.93;;;2.70;;
801;SDS011;383;48.766;9.270;2023-03-23T15:16:51;6.87;;;3.00;;
801;SDS011;383;48.766;9.270;2023-03-23T15:19:22;11.43;;;2.97;;
801;SDS011;383;48.766;9.270;2023-03-23T15:21:52;3.47;;;2.40;;
801;SDS011;383;48.766;9.270;2023-03-23T15:24:21;7.20;;;2.80;;
801;SDS011;383;48.766;9.270;2023-03-23T15:26:52;6.53;;;2.70;;
801;SDS011;383;48.766;9.270;2023-03-23T15:29:28;6.43;;;2.80;;
801;SDS011;383;48.766;9.270;2023-03-23T15:31:56;8.20;;;2.90;;
801;SDS011;383;48.766;9.270;2023-03-23T15:34:28;4.80;;;2.30;;
801;SDS011;383;48.766;9.270;2023-03-23T15:36:58;6.27;;;3.53;;
801;SDS011;383;48.766;9.270;2023-03-23T15:39:27;5.37;;;3.60;;
801;SDS011;383;48.766;9.270;2023-03-23T15:41:55;6.60;;;3.03;;
801;SDS011;383;48.766;9.270;2023-03-23T15:44:24;3.93;;;2.77;;
801;SDS011;383;48.766;9.270;2023-03-23T15:46:55;3.80;;;2.40;;
801;SDS011;383;48.766;9.270;2023-03-23T15:49:36;3.63;;;2.67;;
801;SDS011;383;48.766;9.270;2023-03-23T15:52:03;18.50;;;3.00;;
801;SDS011;383;48.766;9.270;2023-03-23T15:54:30;3.93;;;2.20;;
801;SDS011;383;48.766;9.270;2023-03-23T15:56:57;7.93;;;4.23;;
801;SDS011;383;48.766;9.270;2023-03-23T15:59:24;4.53;;;3.13;;
801;SDS011;383;48.766;9.270;2023-03-23T16:01:51;6.90;;;2.77;;
801;SDS011;383;48.766;9.270;2023-03-23T16:04:19;4.03;;;2.77;;
801;SDS011;383;48.766;9.270;2023-03-23T16:06:46;4.93;;;2.83;;
801;SDS011;383;48.766;9.270;2023-03-23T16:09:16;5.13;;;2.70;;
801;SDS011;383;48.766;9.270;2023-03-23T16:11:44;4.67;;;2.63;;
801;SDS011;383;48.766;9.270;2023-03-23T16:14:11;4.37;;;2.73;;
801;SDS011;383;48.766;9.270;2023-03-23T16:16:38;5.07;;;2.10;;